createdAt,value
2019-05-03T00:00:28.985Z,70.67
2019-05-03T00:01:28.951Z,70.43
2019-05-03T00:02:28.945Z,70.94
2019-05-03T00:03:28.929Z,70.36
2019-05-03T00:04:28.919Z,70.77
2019-05-03T00:05:28.959Z,71.56
2019-05-03T00:06:28.899Z,71.35
2019-05-03T00:07:28.886Z,71.15
2019-05-03T00:08:28.876Z,71.56
2019-05-03T00:09:28.864Z,71.48
2019-05-03T00:10:28.877Z,71.45
2019-05-03T00:11:28.843Z,71.28
2019-05-03T00:12:28.829Z,71.80
2019-05-03T00:13:28.820Z,71.48
2019-05-03T00:14:28.809Z,71.97
2019-05-03T00:15:28.823Z,72.07
2019-05-03T00:16:28.784Z,72.10
2019-05-03T00:17:28.775Z,72.00
2019-05-03T00:18:28.765Z,71.56
2019-05-03T00:19:28.753Z,71.86
2019-05-03T00:20:28.768Z,71.76
2019-05-03T00:21:28.728Z,72.07
2019-05-03T00:22:28.722Z,72.10
2019-05-03T00:23:28.707Z,71.80
2019-05-03T00:24:28.696Z,70.77
2019-05-03T00:25:28.710Z,70.77
2019-05-03T00:26:28.675Z,70.87
2019-05-03T00:27:28.662Z,70.77
2019-05-03T00:28:28.664Z,70.12
2019-05-03T00:29:28.640Z,69.51
2019-05-03T00:30:28.653Z,69.84
2019-05-03T00:31:28.618Z,70.46
2019-05-03T00:32:28.604Z,68.41
2019-05-03T00:33:28.597Z,68.51
2019-05-03T00:34:28.584Z,67.59
2019-05-03T00:35:28.596Z,67.93
2019-05-03T00:36:28.565Z,68.51
2019-05-03T00:37:28.552Z,68.51
2019-05-03T00:38:28.539Z,67.72
2019-05-03T00:39:28.529Z,66.90
2019-05-03T00:40:28.545Z,67.59
2019-05-03T00:41:28.508Z,67.90
2019-05-03T00:42:28.495Z,68.21
2019-05-03T00:43:28.486Z,68.00
2019-05-03T00:44:28.471Z,68.00
2019-05-03T00:45:28.488Z,67.28
2019-05-03T00:46:28.451Z,66.05
2019-05-03T00:47:28.439Z,66.87
2019-05-03T00:48:28.428Z,67.18
2019-05-03T00:49:28.415Z,67.90
2019-05-03T00:50:28.444Z,68.72
2019-05-03T00:51:28.393Z,68.72
2019-05-03T00:52:28.382Z,66.28
2019-05-03T00:53:28.373Z,65.47
2019-05-03T00:54:28.361Z,64.64
2019-05-03T00:55:28.348Z,64.41
2019-05-03T00:56:28.364Z,63.21
2019-05-03T00:57:28.326Z,63.21
2019-05-03T00:58:28.319Z,62.90
2019-05-03T00:59:28.305Z,62.18
2019-05-03T01:00:28.294Z,62.08
2019-05-03T01:01:28.319Z,62.70
2019-05-03T01:02:28.270Z,62.59
2019-05-03T01:03:28.263Z,62.59
2019-05-03T01:04:28.250Z,62.73
2019-05-03T01:05:28.240Z,62.52
2019-05-03T01:06:28.266Z,61.29
2019-05-03T01:07:28.233Z,61.29
2019-05-03T01:08:28.207Z,61.08
2019-05-03T01:09:28.199Z,61.29
2019-05-03T01:10:28.184Z,61.60
2019-05-03T01:11:28.175Z,61.70
2019-05-03T01:12:28.202Z,62.73
2019-05-03T01:13:28.154Z,62.73
2019-05-03T01:14:28.142Z,62.41
2019-05-03T01:15:28.133Z,61.29
2019-05-03T01:16:28.153Z,61.80
2019-05-03T01:17:28.110Z,62.73
2019-05-03T01:18:28.124Z,61.39
2019-05-03T01:19:28.089Z,61.42
2019-05-03T01:20:28.077Z,62.65
2019-05-03T01:21:28.067Z,62.55
2019-05-03T01:22:28.056Z,62.34
2019-05-03T01:23:28.082Z,62.41
2019-05-03T01:24:28.036Z,62.73
2019-05-03T01:25:32.265Z,62.73
2019-05-03T01:26:29.012Z,62.01
2019-05-03T01:27:28.006Z,62.24
2019-05-03T01:28:27.992Z,61.62
2019-05-03T01:29:28.008Z,61.00
2019-05-03T01:30:27.971Z,61.42
2019-05-03T01:31:27.960Z,61.62
2019-05-03T01:32:27.957Z,61.62
2019-05-03T01:33:27.944Z,61.32
2019-05-03T01:34:27.966Z,61.00
2019-05-03T01:35:27.916Z,59.08
2019-05-03T01:36:27.906Z,59.47
2019-05-03T01:37:27.898Z,58.85
2019-05-03T01:38:27.886Z,57.95
2019-05-03T01:39:27.876Z,57.72
2019-05-03T01:40:27.889Z,58.13
2019-05-03T01:41:27.851Z,58.06
2019-05-03T01:42:27.840Z,58.16
2019-05-03T01:43:27.831Z,58.47
2019-05-03T01:44:27.822Z,58.44
2019-05-03T01:45:27.832Z,58.87
2019-05-03T01:46:27.799Z,58.87
2019-05-03T01:47:27.786Z,57.75
2019-05-03T01:48:27.777Z,59.08
2019-05-03T01:49:27.765Z,58.78
2019-05-03T01:50:27.784Z,58.47
2019-05-03T01:51:27.744Z,58.78
2019-05-03T01:52:27.734Z,58.87
2019-05-03T01:53:27.721Z,58.47
2019-05-03T01:54:27.712Z,58.16
2019-05-03T01:55:27.726Z,59.19
2019-05-03T01:56:27.697Z,58.67
2019-05-03T01:57:27.678Z,59.08
2019-05-03T01:58:27.667Z,59.08
2019-05-03T01:59:27.657Z,58.67
2019-05-03T02:00:27.678Z,58.47
2019-05-03T02:01:27.635Z,58.47
2019-05-03T02:02:27.623Z,59.50
2019-05-03T02:03:27.612Z,59.59
2019-05-03T02:04:27.611Z,59.70
2019-05-03T02:05:27.617Z,59.70
2019-05-03T02:06:27.589Z,59.80
2019-05-03T02:07:27.572Z,59.80
2019-05-03T02:08:27.563Z,60.42
2019-05-03T02:09:27.547Z,59.70
2019-05-03T02:10:27.561Z,59.59
2019-05-03T02:11:27.529Z,59.59
2019-05-03T02:12:27.514Z,60.31
2019-05-03T02:13:27.505Z,59.59
2019-05-03T02:14:27.493Z,59.70
2019-05-03T02:15:27.511Z,60.21
2019-05-03T02:16:27.471Z,60.11
2019-05-03T02:17:27.468Z,60.01
2019-05-03T02:18:27.457Z,59.59
2019-05-03T02:19:27.441Z,60.21
2019-05-03T02:20:27.455Z,60.21
2019-05-03T02:21:27.415Z,60.31
2019-05-03T02:22:27.410Z,60.14
2019-05-03T02:23:27.396Z,60.11
2019-05-03T02:24:27.389Z,60.83
2019-05-03T02:25:27.399Z,60.45
2019-05-03T02:26:27.362Z,60.75
2019-05-03T02:27:27.352Z,60.73
2019-05-03T02:28:27.342Z,60.86
2019-05-03T02:29:27.335Z,61.04
2019-05-03T02:30:27.348Z,61.27
2019-05-03T02:31:27.310Z,61.37
2019-05-03T02:32:27.306Z,60.65
2019-05-03T02:33:27.290Z,60.86
2019-05-03T02:34:27.287Z,61.07
2019-05-03T02:35:27.291Z,61.88
2019-05-03T02:36:27.256Z,61.04
2019-05-03T02:37:27.246Z,61.27
2019-05-03T02:38:27.236Z,60.96
2019-05-03T02:39:27.223Z,60.96
2019-05-03T02:40:27.238Z,61.68
2019-05-03T02:41:27.214Z,61.88
2019-05-03T02:42:27.190Z,61.47
2019-05-03T02:43:27.178Z,61.65
2019-05-03T02:44:27.178Z,61.76
2019-05-03T02:45:27.186Z,61.88
2019-05-03T02:46:27.149Z,61.58
2019-05-03T02:47:27.138Z,62.27
2019-05-03T02:48:27.133Z,62.40
2019-05-03T02:49:27.114Z,62.16
2019-05-03T02:50:27.125Z,62.78
2019-05-03T02:51:27.136Z,62.88
2019-05-03T02:52:27.082Z,62.88
2019-05-03T02:53:27.069Z,62.68
2019-05-03T02:54:27.307Z,62.78
2019-05-03T02:55:27.074Z,62.68
2019-05-03T02:56:27.056Z,62.78
2019-05-03T02:57:27.051Z,62.58
2019-05-03T02:58:27.030Z,62.71
2019-05-03T02:59:27.006Z,63.20
2019-05-03T03:00:27.019Z,61.99
2019-05-03T03:01:26.982Z,61.37
2019-05-03T03:02:26.973Z,61.71
2019-05-03T03:03:26.961Z,61.88
2019-05-03T03:04:26.948Z,61.17
2019-05-03T03:05:26.963Z,60.75
2019-05-03T03:06:27.125Z,60.96
2019-05-03T03:07:26.915Z,61.27
2019-05-03T03:08:26.904Z,60.78
2019-05-03T03:09:26.890Z,60.37
2019-05-03T03:10:26.924Z,60.58
2019-05-03T03:11:26.870Z,59.93
2019-05-03T03:12:26.858Z,59.93
2019-05-03T03:13:26.847Z,59.86
2019-05-03T03:14:26.835Z,59.45
2019-05-03T03:15:26.851Z,59.63
2019-05-03T03:16:26.813Z,59.45
2019-05-03T03:17:26.804Z,59.14
2019-05-03T03:18:26.792Z,59.14
2019-05-03T03:19:26.781Z,59.24
2019-05-03T03:20:26.795Z,60.17
2019-05-03T03:21:26.766Z,59.65
2019-05-03T03:22:26.746Z,59.89
2019-05-03T03:23:26.744Z,60.37
2019-05-03T03:24:26.724Z,60.19
2019-05-03T03:25:26.738Z,60.40
2019-05-03T03:26:37.497Z,60.30
2019-05-03T03:27:27.690Z,59.99
2019-05-03T03:28:26.680Z,60.81
2019-05-03T03:29:26.672Z,60.61
2019-05-03T03:30:29.284Z,60.81
2019-05-03T03:31:28.273Z,61.22
2019-05-03T03:32:29.194Z,60.91
2019-05-03T03:33:28.064Z,61.02
2019-05-03T03:34:28.255Z,60.71
2019-05-03T03:35:29.707Z,60.91
2019-05-03T03:36:48.509Z,61.02
2019-05-03T03:37:27.577Z,60.71
2019-05-03T03:38:26.570Z,60.81
2019-05-03T03:39:26.591Z,60.84
2019-05-03T03:40:26.572Z,61.33
2019-05-03T03:41:26.550Z,60.74
2019-05-03T03:42:26.533Z,61.35
2019-05-03T03:43:26.517Z,61.25
2019-05-03T03:44:26.507Z,60.74
2019-05-03T03:45:26.529Z,60.74
2019-05-03T03:46:26.487Z,60.53
2019-05-03T03:47:27.287Z,61.15
2019-05-03T03:48:26.745Z,61.15
2019-05-03T03:49:26.657Z,61.15
2019-05-03T03:50:26.465Z,61.07
2019-05-03T03:51:26.587Z,61.18
2019-05-03T03:52:26.416Z,61.38
2019-05-03T03:53:26.774Z,61.38
2019-05-03T03:54:26.400Z,61.49
2019-05-03T03:55:26.792Z,62.00
2019-05-03T03:56:26.373Z,61.90
2019-05-03T03:57:26.364Z,61.69
2019-05-03T03:58:27.261Z,61.28
2019-05-03T03:59:27.047Z,61.49
2019-05-03T04:00:26.357Z,61.59
2019-05-03T04:01:26.892Z,62.31
2019-05-03T04:02:26.673Z,62.21
2019-05-03T04:03:26.365Z,62.93
2019-05-03T04:04:26.580Z,62.72
2019-05-03T04:05:26.300Z,62.85
2019-05-03T04:06:26.915Z,62.75
2019-05-03T04:07:26.460Z,63.03
2019-05-03T04:08:26.243Z,62.75
2019-05-03T04:09:26.235Z,62.85
2019-05-03T04:10:26.506Z,62.65
2019-05-03T04:11:26.216Z,63.17
2019-05-03T04:12:26.815Z,63.37
2019-05-03T04:13:26.194Z,63.27
2019-05-03T04:14:26.187Z,63.17
2019-05-03T04:15:26.367Z,63.68
2019-05-03T04:16:26.195Z,63.68
2019-05-03T04:17:26.448Z,63.60
2019-05-03T04:18:26.139Z,64.12
2019-05-03T04:19:26.128Z,63.60
2019-05-03T04:20:26.150Z,63.60
2019-05-03T04:21:26.110Z,64.22
2019-05-03T04:22:26.100Z,64.92
2019-05-03T04:23:26.667Z,64.29
2019-05-03T04:24:26.075Z,63.99
2019-05-03T04:25:26.531Z,64.29
2019-05-03T04:26:29.563Z,65.05
2019-05-03T04:27:27.575Z,64.95
2019-05-03T04:28:26.046Z,65.15
2019-05-03T04:29:26.023Z,65.36
2019-05-03T04:30:26.146Z,65.67
2019-05-03T04:31:26.369Z,65.46
2019-05-03T04:32:28.994Z,65.46
2019-05-03T04:33:26.896Z,65.43
2019-05-03T04:34:26.462Z,65.33
2019-05-03T04:35:26.849Z,65.43
2019-05-03T04:36:26.368Z,65.25
2019-05-03T04:37:26.641Z,65.56
2019-05-03T04:38:26.092Z,65.98
2019-05-03T04:39:25.913Z,65.77
2019-05-03T04:40:26.422Z,65.46
2019-05-03T04:41:26.972Z,66.18
2019-05-03T04:42:26.028Z,65.56
2019-05-03T04:43:26.583Z,65.98
2019-05-03T04:44:26.142Z,66.05
2019-05-03T04:45:25.991Z,66.18
2019-05-03T04:46:26.296Z,66.46
2019-05-03T04:47:26.682Z,66.18
2019-05-03T04:48:25.816Z,66.87
2019-05-03T04:49:26.339Z,66.49
2019-05-03T04:50:26.037Z,66.87
2019-05-03T04:51:26.282Z,66.87
2019-05-03T04:52:26.193Z,66.77
2019-05-03T04:53:26.074Z,66.67
2019-05-03T04:54:25.767Z,66.87
2019-05-03T04:55:26.683Z,66.67
2019-05-03T04:56:26.182Z,66.97
2019-05-03T04:57:36.691Z,67.39
2019-05-03T04:58:26.707Z,67.18
2019-05-03T04:59:25.773Z,66.97
2019-05-03T05:00:26.035Z,67.08
2019-05-03T05:01:26.195Z,66.33
2019-05-03T05:02:26.567Z,67.15
2019-05-03T05:03:26.579Z,66.77
2019-05-03T05:04:31.967Z,66.15
2019-05-03T05:05:26.339Z,65.95
2019-05-03T05:06:25.906Z,66.46
2019-05-03T05:07:26.314Z,66.77
2019-05-03T05:08:25.605Z,67.18
2019-05-03T05:09:26.044Z,66.87
2019-05-03T05:10:26.281Z,66.80
2019-05-03T05:11:26.393Z,66.67
2019-05-03T05:12:25.679Z,66.97
2019-05-03T05:13:25.548Z,67.29
2019-05-03T05:14:25.895Z,67.18
2019-05-03T05:15:26.398Z,67.29
2019-05-03T05:16:25.520Z,66.97
2019-05-03T05:17:26.299Z,67.39
2019-05-03T05:18:26.402Z,67.60
2019-05-03T05:19:25.532Z,67.18
2019-05-03T05:20:25.498Z,67.42
2019-05-03T05:21:25.509Z,67.73
2019-05-03T05:22:25.452Z,68.24
2019-05-03T05:23:25.457Z,68.14
2019-05-03T05:24:25.687Z,67.63
2019-05-03T05:25:25.455Z,67.83
2019-05-03T05:26:25.409Z,67.60
2019-05-03T05:27:25.680Z,67.70
2019-05-03T05:28:25.388Z,67.70
2019-05-03T05:29:25.469Z,67.49
2019-05-03T05:30:25.394Z,67.36
2019-05-03T05:31:25.556Z,67.57
2019-05-03T05:32:25.343Z,66.94
2019-05-03T05:33:25.410Z,67.05
2019-05-03T05:34:25.323Z,66.94
2019-05-03T05:35:25.356Z,66.12
2019-05-03T05:36:25.302Z,66.09
2019-05-03T05:37:25.290Z,65.50
2019-05-03T05:38:25.713Z,65.47
2019-05-03T05:39:25.270Z,65.58
2019-05-03T05:40:25.291Z,65.61
2019-05-03T05:41:25.248Z,66.09
2019-05-03T05:42:25.239Z,65.58
2019-05-03T05:43:25.657Z,65.37
2019-05-03T05:44:25.213Z,65.37
2019-05-03T05:45:25.230Z,66.40
2019-05-03T05:46:25.193Z,64.99
2019-05-03T05:47:25.487Z,65.06
2019-05-03T05:48:25.171Z,65.47
2019-05-03T05:49:25.962Z,65.16
2019-05-03T05:50:25.450Z,65.47
2019-05-03T05:51:25.137Z,65.58
2019-05-03T05:52:25.132Z,65.16
2019-05-03T05:53:25.479Z,64.83
2019-05-03T05:54:25.102Z,65.06
2019-05-03T05:55:25.371Z,64.86
2019-05-03T05:56:25.215Z,65.26
2019-05-03T05:57:25.587Z,65.37
2019-05-03T05:58:25.610Z,65.06
2019-05-03T05:59:25.048Z,65.06
2019-05-03T06:00:25.676Z,65.13
2019-05-03T06:01:25.172Z,64.83
2019-05-03T06:02:25.335Z,64.11
2019-05-03T06:03:25.349Z,63.69
2019-05-03T06:04:24.995Z,63.79
2019-05-03T06:05:25.358Z,63.59
2019-05-03T06:06:24.974Z,63.28
2019-05-03T06:07:24.998Z,63.49
2019-05-03T06:08:25.182Z,63.59
2019-05-03T06:09:25.617Z,63.18
2019-05-03T06:10:25.008Z,63.49
2019-05-03T06:11:25.849Z,63.69
2019-05-03T06:12:25.140Z,64.00
2019-05-03T06:13:26.410Z,63.79
2019-05-03T06:14:24.881Z,63.90
2019-05-03T06:15:26.710Z,63.39
2019-05-03T06:16:24.862Z,63.69
2019-05-03T06:17:24.849Z,63.59
2019-05-03T06:18:25.129Z,63.05
2019-05-03T06:19:25.312Z,63.25
2019-05-03T06:20:24.840Z,63.46
2019-05-03T06:21:25.127Z,63.35
2019-05-03T06:22:25.664Z,62.84
2019-05-03T06:23:24.935Z,62.84
2019-05-03T06:24:25.007Z,61.40
2019-05-03T06:25:26.540Z,60.78
2019-05-03T06:26:25.320Z,61.30
2019-05-03T06:27:24.740Z,61.37
2019-05-03T06:28:25.185Z,60.55
2019-05-03T06:29:24.897Z,60.35
2019-05-03T06:30:24.947Z,61.07
2019-05-03T06:31:25.270Z,60.99
2019-05-03T06:32:25.405Z,61.40
2019-05-03T06:33:24.675Z,60.65
2019-05-03T06:34:25.201Z,60.65
2019-05-03T06:35:24.680Z,60.45
2019-05-03T06:36:24.660Z,60.96
2019-05-03T06:37:25.154Z,60.45
2019-05-03T06:38:24.621Z,60.55
2019-05-03T06:39:25.006Z,60.75
2019-05-03T06:40:25.248Z,60.14
2019-05-03T06:41:25.040Z,59.91
2019-05-03T06:42:25.518Z,58.47
2019-05-03T06:43:24.633Z,58.16
2019-05-03T06:44:28.492Z,59.08
2019-05-03T06:45:25.108Z,58.36
2019-05-03T06:46:30.235Z,58.47
2019-05-03T06:47:28.413Z,57.13
2019-05-03T06:48:27.950Z,57.95
2019-05-03T06:49:25.638Z,58.26
2019-05-03T06:50:28.737Z,58.16
2019-05-03T06:51:24.915Z,58.18
2019-05-03T06:52:27.703Z,58.57
2019-05-03T06:53:25.447Z,58.87
2019-05-03T06:54:26.716Z,57.64
2019-05-03T06:55:25.465Z,57.31
2019-05-03T06:56:28.988Z,56.28
2019-05-03T06:57:25.320Z,56.18
2019-05-03T06:58:31.314Z,57.21
2019-05-03T06:59:25.397Z,58.03
2019-05-03T07:00:24.868Z,58.36
2019-05-03T07:01:25.321Z,59.08
2019-05-03T07:02:25.128Z,58.85
2019-05-03T07:03:25.166Z,59.06
2019-05-03T07:04:24.603Z,58.54
2019-05-03T07:05:25.120Z,58.54
2019-05-03T07:06:34.478Z,58.62
2019-05-03T07:07:27.886Z,58.21
2019-05-03T07:08:25.351Z,57.79
2019-05-03T07:09:25.051Z,56.85
2019-05-03T07:10:24.952Z,57.08
2019-05-03T07:11:24.800Z,56.95
2019-05-03T07:12:25.059Z,56.85
2019-05-03T07:13:25.437Z,56.77
2019-05-03T07:14:24.738Z,56.26
2019-05-03T07:15:25.158Z,56.77
2019-05-03T07:16:25.366Z,56.67
2019-05-03T07:17:24.894Z,56.77
2019-05-03T07:18:24.727Z,56.56
2019-05-03T07:19:25.008Z,56.56
2019-05-03T07:20:25.461Z,56.95
2019-05-03T07:21:24.766Z,56.82
2019-05-03T07:22:24.525Z,56.41
2019-05-03T07:23:24.578Z,56.51
2019-05-03T07:24:24.897Z,56.59
2019-05-03T07:25:25.669Z,55.79
2019-05-03T07:26:25.436Z,55.36
2019-05-03T07:27:24.803Z,54.57
2019-05-03T07:28:24.849Z,54.66
2019-05-03T07:29:25.539Z,54.57
2019-05-03T07:30:24.749Z,54.33
2019-05-03T07:31:25.485Z,54.77
2019-05-03T07:32:24.651Z,55.38
2019-05-03T07:33:25.427Z,55.59
2019-05-03T07:34:24.759Z,54.87
2019-05-03T07:35:25.122Z,54.66
2019-05-03T07:36:28.068Z,54.23
2019-05-03T07:37:24.600Z,52.69
2019-05-03T07:38:24.862Z,52.80
2019-05-03T07:39:24.531Z,52.18
2019-05-03T07:40:25.356Z,52.39
2019-05-03T07:41:26.537Z,51.64
2019-05-03T07:42:25.591Z,50.52
2019-05-03T07:43:24.513Z,50.80
2019-05-03T07:44:25.471Z,50.62
2019-05-03T07:45:25.518Z,50.42
2019-05-03T07:46:24.750Z,50.82
2019-05-03T07:47:24.660Z,50.23
2019-05-03T07:48:25.452Z,50.42
2019-05-03T07:49:24.944Z,50.85
2019-05-03T07:50:25.754Z,51.26
2019-05-03T07:51:24.903Z,51.87
2019-05-03T07:52:25.741Z,52.59
2019-05-03T07:53:25.173Z,52.05
2019-05-03T07:54:24.812Z,52.80
2019-05-03T07:55:24.963Z,52.39
2019-05-03T07:56:25.447Z,52.90
2019-05-03T07:57:25.513Z,50.95
2019-05-03T07:58:25.297Z,50.82
2019-05-03T07:59:25.111Z,51.26
2019-05-03T08:00:25.355Z,51.03
2019-05-03T08:01:25.152Z,50.18
2019-05-03T08:02:25.198Z,49.88
2019-05-03T08:03:24.429Z,50.47
2019-05-03T08:04:25.580Z,49.96
2019-05-03T08:05:24.702Z,48.96
2019-05-03T08:06:24.740Z,49.49
2019-05-03T08:07:25.784Z,49.67
2019-05-03T08:08:25.019Z,49.39
2019-05-03T08:09:24.619Z,49.80
2019-05-03T08:10:25.599Z,49.69
2019-05-03T08:11:24.900Z,49.29
2019-05-03T08:12:24.712Z,48.36
2019-05-03T08:13:25.277Z,47.83
2019-05-03T08:14:25.228Z,47.31
2019-05-03T08:15:24.535Z,46.81
2019-05-03T08:16:25.154Z,46.72
2019-05-03T08:17:25.344Z,47.36
2019-05-03T08:18:25.565Z,48.47
2019-05-03T08:19:26.903Z,48.24
2019-05-03T08:20:24.846Z,48.34
2019-05-03T08:21:25.194Z,48.11
2019-05-03T08:22:25.436Z,48.24
2019-05-03T08:23:29.712Z,48.40
2019-05-03T08:24:25.383Z,49.01
2019-05-03T08:25:24.951Z,48.52
2019-05-03T08:26:25.078Z,48.60
2019-05-03T08:27:25.134Z,48.73
2019-05-03T08:28:24.594Z,48.73
2019-05-03T08:29:24.896Z,47.71
2019-05-03T08:30:25.061Z,47.78
2019-05-03T08:31:26.029Z,48.19
2019-05-03T08:32:24.586Z,46.68
2019-05-03T08:33:24.989Z,47.58
2019-05-03T08:34:25.592Z,46.56
2019-05-03T08:35:24.404Z,45.25
2019-05-03T08:36:24.769Z,46.86
2019-05-03T08:37:24.478Z,46.86
2019-05-03T08:38:23.310Z,46.97
2019-05-03T08:39:25.204Z,46.15
2019-05-03T08:40:24.586Z,46.97
2019-05-03T08:41:24.735Z,46.66
2019-05-03T08:42:25.217Z,45.86
2019-05-03T08:43:25.459Z,45.56
2019-05-03T08:44:25.046Z,44.53
2019-05-03T08:45:25.458Z,44.23
2019-05-03T08:46:25.159Z,43.49
2019-05-03T08:47:24.739Z,43.08
2019-05-03T08:48:24.982Z,42.05
2019-05-03T08:49:25.352Z,43.38
2019-05-03T08:50:25.504Z,43.57
2019-05-03T08:51:24.990Z,43.24
2019-05-03T08:52:24.799Z,43.24
2019-05-03T08:53:25.443Z,43.26
2019-05-03T08:54:25.390Z,43.44
2019-05-03T08:55:24.975Z,42.12
2019-05-03T08:56:24.592Z,42.02
2019-05-03T08:57:25.171Z,41.61
2019-05-03T08:58:23.091Z,42.10
2019-05-03T08:59:31.599Z,41.79
2019-05-03T09:00:24.936Z,42.30
2019-05-03T09:01:25.028Z,43.16
2019-05-03T09:02:25.591Z,43.26
2019-05-03T09:03:24.870Z,43.26
2019-05-03T09:04:34.225Z,43.88
2019-05-03T09:05:25.033Z,44.37
2019-05-03T09:06:24.818Z,44.17
2019-05-03T09:07:25.125Z,43.22
2019-05-03T09:08:24.856Z,43.94
2019-05-03T09:09:22.971Z,44.45
2019-05-03T09:10:24.936Z,43.02
2019-05-03T09:11:33.429Z,43.04
2019-05-03T09:12:25.183Z,42.53
2019-05-03T09:13:24.962Z,42.94
2019-05-03T09:14:24.453Z,43.26
2019-05-03T09:15:24.632Z,43.38
2019-05-03T09:16:25.030Z,43.37
2019-05-03T09:17:24.647Z,43.37
2019-05-03T09:18:22.871Z,43.04
2019-05-03T09:19:22.859Z,42.73
2019-05-03T09:20:24.986Z,42.30
2019-05-03T09:21:22.838Z,42.00
2019-05-03T09:22:22.830Z,41.38
2019-05-03T09:23:23.993Z,40.56
2019-05-03T09:24:24.640Z,41.56
2019-05-03T09:25:24.762Z,41.56
2019-05-03T09:26:22.782Z,41.88
2019-05-03T09:27:24.568Z,42.59
2019-05-03T09:28:22.760Z,42.69
2019-05-03T09:29:22.749Z,42.81
2019-05-03T09:30:24.988Z,43.53
2019-05-03T09:31:24.623Z,43.04
2019-05-03T09:32:22.718Z,41.81
2019-05-03T09:33:24.716Z,41.40
2019-05-03T09:34:22.693Z,41.61
2019-05-03T09:35:32.562Z,41.71
2019-05-03T09:36:25.274Z,41.91
2019-05-03T09:37:24.877Z,42.50
2019-05-03T09:38:22.653Z,42.10
2019-05-03T09:39:24.542Z,41.49
2019-05-03T09:40:24.461Z,43.02
2019-05-03T09:41:22.618Z,42.61
2019-05-03T09:42:24.642Z,42.83
2019-05-03T09:43:22.594Z,42.83
2019-05-03T09:44:24.333Z,43.44
2019-05-03T09:45:24.527Z,42.83
2019-05-03T09:46:24.277Z,41.40
2019-05-03T09:47:22.551Z,40.99
2019-05-03T09:48:22.541Z,41.81
2019-05-03T09:49:22.526Z,41.69
2019-05-03T09:50:24.585Z,41.38
2019-05-03T09:51:22.510Z,40.67
2019-05-03T09:52:24.789Z,40.42
2019-05-03T09:53:22.484Z,40.75
2019-05-03T09:54:22.477Z,39.61
2019-05-03T09:55:22.487Z,40.22
2019-05-03T09:56:22.453Z,40.22
2019-05-03T09:57:24.239Z,40.83
2019-05-03T09:58:22.437Z,40.10
2019-05-03T09:59:22.419Z,40.41
2019-05-03T10:00:24.446Z,40.51
2019-05-03T10:01:22.396Z,41.55
2019-05-03T10:02:24.495Z,41.55
2019-05-03T10:03:22.408Z,40.94
2019-05-03T10:04:22.365Z,40.34
2019-05-03T10:05:22.408Z,38.91
2019-05-03T10:06:22.347Z,38.83
2019-05-03T10:07:22.332Z,39.14
2019-05-03T10:08:22.327Z,39.73
2019-05-03T10:09:22.316Z,39.83
2019-05-03T10:10:24.699Z,39.81
2019-05-03T10:11:22.292Z,38.79
2019-05-03T10:12:22.279Z,38.48
2019-05-03T10:13:23.676Z,37.26
2019-05-03T10:14:22.256Z,37.18
2019-05-03T10:15:22.268Z,37.99
2019-05-03T10:16:22.237Z,38.40
2019-05-03T10:17:22.224Z,38.08
2019-05-03T10:18:22.212Z,38.48
2019-05-03T10:19:34.811Z,38.57
2019-05-03T10:20:25.088Z,38.96
2019-05-03T10:21:22.180Z,38.96
2019-05-03T10:22:22.172Z,39.17
2019-05-03T10:23:22.159Z,40.39
2019-05-03T10:24:22.147Z,39.17
2019-05-03T10:25:22.162Z,39.25
2019-05-03T10:26:22.127Z,39.67
2019-05-03T10:27:22.116Z,38.96
2019-05-03T10:28:22.103Z,39.26
2019-05-03T10:29:22.094Z,39.65
2019-05-03T10:30:22.106Z,40.06
2019-05-03T10:31:22.070Z,40.05
2019-05-03T10:32:22.060Z,39.74
2019-05-03T10:33:22.068Z,38.70
2019-05-03T10:34:22.061Z,38.19
2019-05-03T10:35:22.057Z,38.40
2019-05-03T10:36:22.018Z,37.29
2019-05-03T10:37:22.005Z,37.70
2019-05-03T10:38:21.992Z,37.40
2019-05-03T10:39:21.987Z,37.49
2019-05-03T10:40:21.996Z,38.21
2019-05-03T10:41:21.960Z,37.40
2019-05-03T10:42:21.950Z,37.17
2019-05-03T10:43:21.947Z,38.01
2019-05-03T10:44:21.925Z,38.53
2019-05-03T10:45:24.991Z,38.43
2019-05-03T10:46:24.932Z,38.45
2019-05-03T10:47:21.896Z,38.45
2019-05-03T10:48:21.882Z,39.06
2019-05-03T10:49:21.872Z,39.47
2019-05-03T10:50:21.891Z,40.00
2019-05-03T10:51:21.847Z,40.71
2019-05-03T10:52:21.843Z,40.42
2019-05-03T10:53:21.824Z,40.73
2019-05-03T10:54:21.816Z,40.83
2019-05-03T10:55:21.832Z,40.53
2019-05-03T10:56:24.505Z,41.24
2019-05-03T10:57:21.784Z,40.94
2019-05-03T10:58:21.769Z,41.04
2019-05-03T10:59:21.759Z,41.24
2019-05-03T11:00:42.369Z,40.73
2019-05-03T11:01:22.738Z,40.81
2019-05-03T11:02:21.734Z,40.51
2019-05-03T11:03:21.724Z,40.39
2019-05-03T11:04:21.707Z,39.57
2019-05-03T11:05:28.037Z,40.06
2019-05-03T11:06:21.684Z,38.21
2019-05-03T11:07:21.677Z,38.01
2019-05-03T11:08:21.662Z,37.07
2019-05-03T11:09:21.665Z,37.90
2019-05-03T11:10:21.663Z,37.29
2019-05-03T11:11:21.630Z,37.62
2019-05-03T11:12:21.619Z,37.92
2019-05-03T11:13:21.607Z,38.55
2019-05-03T11:14:21.595Z,38.76
2019-05-03T11:15:21.610Z,39.47
2019-05-03T11:16:21.574Z,39.26
2019-05-03T11:17:21.576Z,39.35
2019-05-03T11:18:21.552Z,39.15
2019-05-03T11:19:21.541Z,39.55
2019-05-03T11:20:28.378Z,38.64
2019-05-03T11:21:28.855Z,38.64
2019-05-03T11:22:22.509Z,38.68
2019-05-03T11:23:21.500Z,37.10
2019-05-03T11:24:23.556Z,35.75
2019-05-03T11:25:22.504Z,34.70
2019-05-03T11:26:21.465Z,34.17
2019-05-03T11:27:21.456Z,33.86
2019-05-03T11:28:21.446Z,33.23
2019-05-03T11:29:21.432Z,33.22
2019-05-03T11:30:21.446Z,32.90
2019-05-03T11:31:21.410Z,31.80
2019-05-03T11:32:21.400Z,32.10
2019-05-03T11:33:21.393Z,32.62
2019-05-03T11:34:22.698Z,32.54
2019-05-03T11:35:21.392Z,33.48
2019-05-03T11:36:21.358Z,34.74
2019-05-03T11:37:21.347Z,34.95
2019-05-03T11:38:21.336Z,35.78
2019-05-03T11:39:21.330Z,35.90
2019-05-03T11:40:21.343Z,35.80
2019-05-03T11:41:30.361Z,36.53
2019-05-03T11:42:22.289Z,36.43
2019-05-03T11:43:21.282Z,36.55
2019-05-03T11:44:21.267Z,36.85
2019-05-03T11:45:21.299Z,37.68
2019-05-03T11:46:21.247Z,37.79
2019-05-03T11:47:21.235Z,37.07
2019-05-03T11:48:21.225Z,36.56
2019-05-03T11:49:21.214Z,37.27
2019-05-03T11:50:21.201Z,37.29
2019-05-03T11:51:21.217Z,36.63
2019-05-03T11:52:21.181Z,35.27
2019-05-03T11:53:21.168Z,34.95
2019-05-03T11:54:21.161Z,34.02
2019-05-03T11:55:21.152Z,33.69
2019-05-03T11:56:21.160Z,33.70
2019-05-03T11:57:21.130Z,34.61
2019-05-03T11:58:21.120Z,35.44
2019-05-03T11:59:21.106Z,35.34
2019-05-03T12:00:21.092Z,34.52
2019-05-03T12:01:21.106Z,34.61
2019-05-03T12:02:21.072Z,34.60
2019-05-03T12:03:21.060Z,34.30
2019-05-03T12:04:21.052Z,33.23
2019-05-03T12:05:21.039Z,32.78
2019-05-03T12:06:21.056Z,31.74
2019-05-03T12:07:21.015Z,31.22
2019-05-03T12:08:21.003Z,31.13
2019-05-03T12:09:20.993Z,32.07
2019-05-03T12:10:36.424Z,31.48
2019-05-03T12:11:22.019Z,30.04
2019-05-03T12:12:20.972Z,30.64
2019-05-03T12:13:20.951Z,30.98
2019-05-03T12:14:20.952Z,31.71
2019-05-03T12:15:20.928Z,32.62
2019-05-03T12:16:26.743Z,31.35
2019-05-03T12:17:28.301Z,31.29
2019-05-03T12:18:21.950Z,32.22
2019-05-03T12:19:27.540Z,33.18
2019-05-03T12:20:23.359Z,33.60
2019-05-03T12:21:22.285Z,33.89
2019-05-03T12:22:21.224Z,33.25
2019-05-03T12:23:21.428Z,33.97
2019-05-03T12:24:21.485Z,34.30
2019-05-03T12:25:21.261Z,34.82
2019-05-03T12:26:21.513Z,33.70
2019-05-03T12:27:20.833Z,33.26
2019-05-03T12:28:20.840Z,33.16
2019-05-03T12:29:20.773Z,33.70
2019-05-03T12:30:20.814Z,34.53
2019-05-03T12:31:33.492Z,34.53
2019-05-03T12:32:21.777Z,34.61
2019-05-03T12:33:20.738Z,34.82
2019-05-03T12:34:20.723Z,34.21
2019-05-03T12:35:20.717Z,34.09
2019-05-03T12:36:20.696Z,34.89
2019-05-03T12:37:20.689Z,35.00
2019-05-03T12:38:20.700Z,35.42
2019-05-03T12:39:26.666Z,36.04
2019-05-03T12:40:21.652Z,34.83
2019-05-03T12:41:20.641Z,35.75
2019-05-03T12:42:20.673Z,34.89
2019-05-03T12:43:20.657Z,34.38
2019-05-03T12:44:20.641Z,33.72
2019-05-03T12:45:20.601Z,32.46
2019-05-03T12:46:20.587Z,33.20
2019-05-03T12:47:22.304Z,33.32
2019-05-03T12:48:20.566Z,32.26
2019-05-03T12:49:20.600Z,32.16
2019-05-03T12:50:20.544Z,32.35
2019-05-03T12:51:20.545Z,31.32
2019-05-03T12:52:21.160Z,30.52